createdAt,value
2022-10-09T00:01:30.906Z,97396.81
2022-10-09T00:04:00.122Z,97386.50
2022-10-09T00:06:31.348Z,97398.63
2022-10-09T00:09:02.964Z,97396.34
2022-10-09T00:11:33.154Z,97390.00
2022-10-09T00:14:01.787Z,97389.53
2022-10-09T00:16:31.691Z,97386.91
2022-10-09T00:19:00.084Z,97387.31
2022-10-09T00:21:31.009Z,97379.78
2022-10-09T00:24:01.925Z,97379.75
2022-10-09T00:26:30.677Z,97378.94
2022-10-09T00:28:59.273Z,97381.94
2022-10-09T00:31:27.522Z,97374.88
2022-10-09T00:33:57.275Z,97372.84
2022-10-09T00:36:27.386Z,97373.47
2022-10-09T00:38:56.713Z,97371.03
2022-10-09T00:41:28.589Z,97375.91
2022-10-09T00:43:59.222Z,97370.88
2022-10-09T00:46:34.666Z,97362.09
2022-10-09T00:49:14.453Z,97368.16
2022-10-09T00:51:45.027Z,97363.84
2022-10-09T00:54:17.107Z,97365.75
2022-10-09T00:56:45.460Z,97362.97
2022-10-09T00:59:14.311Z,97359.66
2022-10-09T01:01:43.244Z,97361.03
2022-10-09T01:04:13.084Z,97353.75
2022-10-09T01:06:58.362Z,97352.75
2022-10-09T01:09:39.190Z,97355.75
2022-10-09T01:12:20.628Z,97354.97
2022-10-09T01:14:59.523Z,97349.88
2022-10-09T01:17:37.703Z,97346.19
2022-10-09T01:20:37.348Z,97341.88
2022-10-09T01:23:36.007Z,97346.91
2022-10-09T01:26:18.052Z,97347.50
2022-10-09T01:28:52.225Z,97341.41
2022-10-09T01:31:21.822Z,97337.34
2022-10-09T01:33:50.514Z,97340.56
2022-10-09T01:36:20.230Z,97341.13
2022-10-09T01:38:49.475Z,97336.81
2022-10-09T01:41:18.429Z,97340.63
2022-10-09T01:43:47.811Z,97336.34
2022-10-09T01:46:22.721Z,97339.59
2022-10-09T01:49:03.646Z,97323.19
2022-10-09T01:51:45.577Z,97321.16
2022-10-09T01:54:15.926Z,97316.69
2022-10-09T01:56:48.812Z,97315.81
2022-10-09T01:59:19.805Z,97311.97
2022-10-09T02:01:49.815Z,97306.94
2022-10-09T02:04:19.711Z,97308.78
2022-10-09T02:06:48.659Z,97304.66
2022-10-09T02:09:18.878Z,97306.28
2022-10-09T02:11:53.949Z,97305.63
2022-10-09T02:14:25.134Z,97307.06
2022-10-09T02:17:03.764Z,97291.81
2022-10-09T02:19:37.876Z,97294.31
2022-10-09T02:22:11.671Z,97298.66
2022-10-09T02:24:41.360Z,97288.88
2022-10-09T02:27:12.303Z,97286.25
2022-10-09T02:29:42.814Z,97287.25
2022-10-09T02:32:11.745Z,97284.34
2022-10-09T02:34:39.993Z,97285.00
2022-10-09T02:37:09.783Z,97280.47
2022-10-09T02:39:37.996Z,97272.16
2022-10-09T02:42:06.504Z,97273.19
2022-10-09T02:44:34.898Z,97280.88
2022-10-09T02:47:07.731Z,97278.81
2022-10-09T02:49:35.821Z,97281.38
2022-10-09T02:52:29.736Z,97287.25
2022-10-09T02:54:57.942Z,97282.19
2022-10-09T02:57:26.117Z,97280.19
2022-10-09T02:59:54.229Z,97278.56
2022-10-09T03:02:23.718Z,97280.25
2022-10-09T03:04:51.983Z,97277.63
2022-10-09T03:07:20.035Z,97272.38
2022-10-09T03:09:48.098Z,97275.19
2022-10-09T03:12:21.198Z,97283.00
2022-10-09T03:14:49.339Z,97272.44
2022-10-09T03:17:17.471Z,97270.78
2022-10-09T03:19:46.892Z,97268.63
2022-10-09T03:22:14.927Z,97273.16
2022-10-09T03:24:43.032Z,97269.53
2022-10-09T03:27:11.075Z,97264.91
2022-10-09T03:29:39.177Z,97278.66
2022-10-09T03:32:07.433Z,97271.97
2022-10-09T03:34:35.486Z,97275.97
2022-10-09T03:37:05.810Z,97280.34
2022-10-09T03:39:33.818Z,97279.56
2022-10-09T03:42:01.806Z,97277.03
2022-10-09T03:44:29.863Z,97267.50
2022-10-09T03:46:58.552Z,97276.16
2022-10-09T03:49:26.694Z,97273.59
2022-10-09T03:51:54.687Z,97281.09
2022-10-09T03:54:24.107Z,97271.78
2022-10-09T03:56:52.380Z,97279.50
2022-10-09T03:59:20.399Z,97275.72
2022-10-09T04:01:48.449Z,97272.88
2022-10-09T04:04:16.776Z,97267.19
2022-10-09T04:06:45.153Z,97274.81
2022-10-09T04:09:13.169Z,97275.25
2022-10-09T04:11:42.570Z,97277.69
2022-10-09T04:14:10.767Z,97276.88
2022-10-09T04:16:38.827Z,97277.09
2022-10-09T04:19:06.927Z,97267.38
2022-10-09T04:21:34.976Z,97273.09
2022-10-09T04:24:03.712Z,97270.38
2022-10-09T04:26:31.772Z,97270.56
2022-10-09T04:29:01.266Z,97277.44
2022-10-09T04:31:29.463Z,97263.06
2022-10-09T04:33:57.685Z,97274.00
2022-10-09T04:36:26.251Z,97265.94
2022-10-09T04:38:54.278Z,97258.44
2022-10-09T04:41:24.319Z,97265.72
2022-10-09T04:43:56.093Z,97261.53
2022-10-09T04:46:26.987Z,97255.94
2022-10-09T04:48:55.288Z,97270.25
2022-10-09T04:51:23.407Z,97269.72
2022-10-09T04:53:51.684Z,97262.97
2022-10-09T04:56:21.415Z,97258.91
2022-10-09T04:58:50.229Z,97258.47
2022-10-09T05:01:21.356Z,97253.84
2022-10-09T05:03:52.095Z,97250.59
2022-10-09T05:06:21.986Z,97255.03
2022-10-09T05:08:50.639Z,97255.13
2022-10-09T05:11:21.897Z,97259.41
2022-10-09T05:13:52.986Z,97254.78
2022-10-09T05:16:23.783Z,97262.09
2022-10-09T05:18:55.914Z,97260.09
2022-10-09T05:21:24.748Z,97256.69
2022-10-09T05:23:55.423Z,97257.47
2022-10-09T05:26:25.987Z,97255.75
2022-10-09T05:28:54.117Z,97262.00
2022-10-09T05:31:25.840Z,97258.38
2022-10-09T05:33:57.283Z,97260.75
2022-10-09T05:36:25.408Z,97261.47
2022-10-09T05:38:53.546Z,97256.69
2022-10-09T05:41:21.652Z,97259.09
2022-10-09T05:43:51.235Z,97258.13
2022-10-09T05:46:21.629Z,97256.19
2022-10-09T05:48:55.993Z,97260.91
2022-10-09T05:51:26.968Z,97253.44
2022-10-09T05:53:56.553Z,97262.81
2022-10-09T05:56:27.277Z,97256.97
2022-10-09T05:58:57.621Z,97258.41
2022-10-09T06:01:28.451Z,97252.19
2022-10-09T06:03:59.914Z,97256.44
2022-10-09T06:06:31.004Z,97249.66
2022-10-09T06:09:00.327Z,97252.72
2022-10-09T06:11:31.643Z,97256.78
2022-10-09T06:14:01.969Z,97251.97
2022-10-09T06:16:32.836Z,97253.44
2022-10-09T06:19:03.454Z,97251.06
2022-10-09T06:21:31.930Z,97261.47
2022-10-09T06:24:02.002Z,97265.72
2022-10-09T06:26:31.624Z,97260.19
2022-10-09T06:29:02.382Z,97256.81
2022-10-09T06:31:33.125Z,97259.06
2022-10-09T06:34:04.716Z,97267.16
2022-10-09T06:36:36.250Z,97269.34
2022-10-09T06:39:07.531Z,97261.22
2022-10-09T06:41:35.975Z,97270.34
2022-10-09T06:44:17.222Z,97266.13
2022-10-09T06:46:49.473Z,97264.16
2022-10-09T06:49:18.934Z,97274.03
2022-10-09T06:51:47.140Z,97276.28
2022-10-09T06:54:17.280Z,97268.69
2022-10-09T06:56:45.640Z,97271.09
2022-10-09T06:59:14.036Z,97271.97
2022-10-09T07:01:42.415Z,97270.78
2022-10-09T07:04:13.617Z,97275.91
2022-10-09T07:06:46.666Z,97286.91
2022-10-09T07:09:16.837Z,97271.19
2022-10-09T07:11:48.809Z,97282.63
2022-10-09T07:14:17.378Z,97273.53
2022-10-09T07:16:48.363Z,97274.84
2022-10-09T07:19:18.195Z,97270.13
2022-10-09T07:21:50.016Z,97275.09
2022-10-09T07:24:20.624Z,97274.34
2022-10-09T07:26:49.467Z,97275.41
2022-10-09T07:29:19.534Z,97275.44
2022-10-09T07:31:47.786Z,97278.88
2022-10-09T07:34:15.846Z,97284.59
2022-10-09T07:36:44.035Z,97278.22
2022-10-09T07:39:14.336Z,97273.63
2022-10-09T07:41:43.295Z,97263.31
2022-10-09T07:44:12.106Z,97267.19
2022-10-09T07:46:40.276Z,97264.34
2022-10-09T07:49:08.488Z,97270.50
2022-10-09T07:51:36.684Z,97275.63
2022-10-09T07:54:05.061Z,97279.53
2022-10-09T07:56:37.850Z,97265.59
2022-10-09T07:59:08.586Z,97262.75
2022-10-09T08:01:37.353Z,97259.75
2022-10-09T08:04:06.181Z,97257.09
2022-10-09T08:06:34.456Z,97260.97
2022-10-09T08:09:04.382Z,97262.81
2022-10-09T08:11:35.212Z,97263.81
2022-10-09T08:14:03.668Z,97265.84
2022-10-09T08:16:33.394Z,97257.69
2022-10-09T08:19:02.858Z,97264.59
2022-10-09T08:21:32.850Z,97258.69
2022-10-09T08:24:01.374Z,97255.41
2022-10-09T08:26:31.694Z,97255.78
2022-10-09T08:29:04.275Z,97246.16
2022-10-09T08:31:33.157Z,97245.97
2022-10-09T08:34:04.327Z,97251.81
2022-10-09T08:36:33.143Z,97244.88
2022-10-09T08:39:01.255Z,97250.34
2022-10-09T08:41:45.622Z,97246.59
2022-10-09T08:44:25.066Z,97253.50
2022-10-09T08:47:03.342Z,97250.81
2022-10-09T08:49:42.256Z,97244.16
2022-10-09T08:52:25.639Z,97238.47
2022-10-09T08:54:56.863Z,97240.28
2022-10-09T08:57:28.121Z,97235.28
2022-10-09T09:00:22.195Z,97236.44
2022-10-09T09:03:27.196Z,97235.41
2022-10-09T09:06:01.014Z,97233.16
2022-10-09T09:08:42.163Z,97239.44
2022-10-09T09:11:23.435Z,97220.63
2022-10-09T09:14:03.814Z,97224.13
2022-10-09T09:16:45.132Z,97222.00
2022-10-09T09:19:39.447Z,97211.31
2022-10-09T09:22:12.973Z,97217.00
2022-10-09T09:24:45.859Z,97209.38
2022-10-09T09:27:19.188Z,97206.59
2022-10-09T09:29:55.595Z,97212.03
2022-10-09T09:32:28.685Z,97207.75
2022-10-09T09:35:13.132Z,97220.47
2022-10-09T09:37:41.275Z,97211.56
2022-10-09T09:40:36.719Z,97201.47
2022-10-09T09:43:14.662Z,97199.50
2022-10-09T09:45:44.127Z,97201.56
2022-10-09T09:48:40.901Z,97189.53
2022-10-09T09:51:27.906Z,97190.72
2022-10-09T09:54:00.478Z,97187.41
2022-10-09T09:57:06.877Z,97183.31
2022-10-09T09:59:33.946Z,97160.69
2022-10-09T10:02:15.232Z,97161.41
2022-10-09T10:04:59.651Z,97174.47
2022-10-09T10:07:30.603Z,97163.19
2022-10-09T10:10:08.341Z,97156.41
2022-10-09T10:12:42.290Z,97157.22
2022-10-09T10:15:21.224Z,97155.88
2022-10-09T10:17:55.959Z,97165.13
2022-10-09T10:20:25.737Z,97159.63
2022-10-09T10:22:57.687Z,97149.31
2022-10-09T10:25:32.670Z,97132.00
2022-10-09T10:28:07.386Z,97134.50
2022-10-09T10:30:38.564Z,97138.78
2022-10-09T10:33:19.565Z,97135.53
2022-10-09T10:35:53.463Z,97124.03
2022-10-09T10:38:28.253Z,97127.72
2022-10-09T10:41:06.367Z,97126.41
2022-10-09T10:43:43.049Z,97122.69
2022-10-09T10:46:23.771Z,97124.59
2022-10-09T10:48:52.199Z,97118.25
2022-10-09T10:51:51.193Z,97121.41
2022-10-09T10:54:34.560Z,97115.94
2022-10-09T10:57:11.705Z,97118.31
2022-10-09T10:59:45.179Z,97118.97
2022-10-09T11:03:05.232Z,97108.56
2022-10-09T11:05:46.114Z,97110.78
2022-10-09T11:08:49.374Z,97099.09
2022-10-09T11:11:23.669Z,97104.53
2022-10-09T11:14:03.426Z,97102.34
2022-10-09T11:16:49.782Z,97092.44
2022-10-09T11:19:45.801Z,97084.59
2022-10-09T11:22:31.684Z,97080.00
2022-10-09T11:25:22.252Z,97075.81
2022-10-09T11:27:55.902Z,97074.41
2022-10-09T11:30:26.571Z,97081.19
2022-10-09T11:33:00.381Z,97071.13
2022-10-09T11:35:35.253Z,97073.19
2022-10-09T11:38:08.112Z,97068.50
2022-10-09T11:40:43.476Z,97066.53
2022-10-09T11:43:29.087Z,97056.44
2022-10-09T11:46:05.771Z,97045.69
2022-10-09T11:48:43.686Z,97049.75
2022-10-09T11:51:19.578Z,97052.34
2022-10-09T11:53:48.627Z,97048.94
2022-10-09T11:56:26.229Z,97045.31
2022-10-09T11:58:59.419Z,97036.91
2022-10-09T12:01:33.070Z,97038.22
2022-10-09T12:04:05.728Z,97038.50
2022-10-09T12:06:46.081Z,97021.09
2022-10-09T12:09:24.273Z,97017.56
2022-10-09T12:12:07.273Z,97010.31
2022-10-09T12:14:37.826Z,97017.69
2022-10-09T12:17:18.122Z,97010.78
2022-10-09T12:19:46.649Z,97011.16
2022-10-09T12:22:19.447Z,97002.28
2022-10-09T12:24:51.243Z,97000.03
2022-10-09T12:27:25.065Z,97001.88
2022-10-09T12:29:57.442Z,96993.34
2022-10-09T12:32:30.185Z,96994.94
2022-10-09T12:34:58.977Z,97002.97
2022-10-09T12:37:35.499Z,96985.44
2022-10-09T12:40:14.577Z,96977.50
2022-10-09T12:42:45.990Z,96981.25
2022-10-09T12:45:20.056Z,96984.66
2022-10-09T12:47:48.547Z,96989.38
2022-10-09T12:50:29.104Z,96976.34
2022-10-09T12:53:00.182Z,96974.16
2022-10-09T12:55:31.281Z,96975.22
2022-10-09T12:58:04.493Z,96967.44
2022-10-09T13:00:34.361Z,96952.94
2022-10-09T13:03:02.657Z,96952.13
2022-10-09T13:05:39.104Z,96951.38
2022-10-09T13:08:16.908Z,96950.56
2022-10-09T13:10:45.013Z,96948.22
2022-10-09T13:13:22.222Z,96945.28
2022-10-09T13:16:02.017Z,96942.50
2022-10-09T13:18:30.556Z,96937.19
2022-10-09T13:21:05.922Z,96938.25
2022-10-09T13:23:36.411Z,96933.22
2022-10-09T13:26:06.695Z,96934.47
2022-10-09T13:28:36.272Z,96924.06
2022-10-09T13:31:08.091Z,96920.03
2022-10-09T13:33:36.386Z,96918.16
2022-10-09T13:36:04.748Z,96920.06
2022-10-09T13:38:35.058Z,96911.31
2022-10-09T13:41:03.908Z,96915.28
2022-10-09T13:43:32.207Z,96909.16
2022-10-09T13:46:01.696Z,96907.69
2022-10-09T13:48:31.219Z,96899.41
2022-10-09T13:50:59.811Z,96897.84
2022-10-09T13:53:28.441Z,96894.13
2022-10-09T13:56:00.746Z,96885.63
2022-10-09T13:58:29.727Z,96888.22
2022-10-09T14:00:58.880Z,96875.16
2022-10-09T14:03:28.378Z,96878.66
2022-10-09T14:05:59.679Z,96876.81
2022-10-09T14:08:28.090Z,96874.97
2022-10-09T14:10:56.274Z,96868.56
2022-10-09T14:13:24.326Z,96863.47
2022-10-09T14:15:53.091Z,96858.41
2022-10-09T14:18:21.481Z,96855.81
2022-10-09T14:20:51.176Z,96848.16
2022-10-09T14:23:19.248Z,96853.44
2022-10-09T14:25:47.290Z,96849.69
2022-10-09T14:28:15.413Z,96840.66
2022-10-09T14:30:46.052Z,96840.41
2022-10-09T14:33:14.103Z,96836.06
2022-10-09T14:35:42.104Z,96853.16
2022-10-09T14:38:11.483Z,96841.47
2022-10-09T14:40:43.482Z,96831.94
2022-10-09T14:43:11.843Z,96832.25
2022-10-09T14:45:39.941Z,96832.28
2022-10-09T14:48:08.056Z,96833.16
2022-10-09T14:50:37.336Z,96828.78
2022-10-09T14:53:05.399Z,96823.38
2022-10-09T14:55:36.771Z,96828.63
2022-10-09T14:58:04.795Z,96829.03
2022-10-09T15:00:33.591Z,96825.34
2022-10-09T15:03:01.623Z,96816.50
2022-10-09T15:05:29.790Z,96824.34
2022-10-09T15:07:57.841Z,96819.31
2022-10-09T15:10:25.910Z,96814.94
2022-10-09T15:12:55.306Z,96817.06
2022-10-09T15:15:23.345Z,96805.34
2022-10-09T15:17:51.612Z,96799.06
2022-10-09T15:20:20.409Z,96801.63
2022-10-09T15:22:49.371Z,96804.53
2022-10-09T15:25:17.599Z,96804.47
2022-10-09T15:27:45.700Z,96796.94
2022-10-09T15:30:15.385Z,96801.97
2022-10-09T15:32:43.489Z,96796.94
2022-10-09T15:35:11.555Z,96792.28
2022-10-09T15:37:39.691Z,96789.88
2022-10-09T15:40:09.082Z,96787.75
2022-10-09T15:42:37.663Z,96792.19
2022-10-09T15:45:07.027Z,96786.88
2022-10-09T15:47:50.606Z,96782.91
2022-10-09T15:50:19.623Z,96778.56
2022-10-09T15:52:47.960Z,96778.13
2022-10-09T15:55:16.489Z,96770.84
2022-10-09T15:57:44.552Z,96777.34
2022-10-09T16:00:14.482Z,96765.94
2022-10-09T16:02:44.080Z,96770.66
2022-10-09T16:05:12.234Z,96764.22
2022-10-09T16:07:41.303Z,96758.31
2022-10-09T16:10:10.235Z,96767.41
2022-10-09T16:12:38.423Z,96763.59
2022-10-09T16:15:07.895Z,96765.38
2022-10-09T16:17:35.950Z,96763.25
2022-10-09T16:20:06.501Z,96762.97
2022-10-09T16:22:34.889Z,96758.06
2022-10-09T16:25:02.994Z,96766.75
2022-10-09T16:27:31.555Z,96758.00
2022-10-09T16:29:59.595Z,96756.84
2022-10-09T16:32:29.817Z,96760.00
2022-10-09T16:34:57.964Z,96764.13
2022-10-09T16:37:27.337Z,96769.44
2022-10-09T16:39:55.436Z,96766.53
2022-10-09T16:42:23.500Z,96764.59
2022-10-09T16:44:51.619Z,96761.63
2022-10-09T16:47:19.886Z,96767.69
2022-10-09T16:49:47.949Z,96767.03
2022-10-09T16:52:16.319Z,96760.13
2022-10-09T16:54:46.208Z,96768.50
2022-10-09T16:57:14.427Z,96770.44
2022-10-09T16:59:44.153Z,96773.63
2022-10-09T17:02:12.371Z,96771.50
2022-10-09T17:04:41.196Z,96762.00
2022-10-09T17:07:10.400Z,96768.81
2022-10-09T17:09:40.380Z,96768.88
2022-10-09T17:12:12.981Z,96769.72
2022-10-09T17:14:41.730Z,96771.31
2022-10-09T17:17:12.229Z,96773.16
2022-10-09T17:19:41.142Z,96771.72
2022-10-09T17:22:09.401Z,96773.31
2022-10-09T17:24:37.528Z,96774.78
2022-10-09T17:27:09.646Z,96770.50
2022-10-09T17:29:39.884Z,96769.88
2022-10-09T17:32:09.292Z,96772.75
2022-10-09T17:34:42.897Z,96774.13
2022-10-09T17:37:10.989Z,96774.78
2022-10-09T17:39:39.229Z,96774.44
2022-10-09T17:42:07.448Z,96774.69
2022-10-09T17:44:35.582Z,96770.56
2022-10-09T17:47:06.165Z,96763.66
2022-10-09T17:49:34.307Z,96772.91
2022-10-09T17:52:02.352Z,96766.47
2022-10-09T17:54:30.486Z,96771.69
2022-10-09T17:57:00.212Z,96765.72
2022-10-09T17:59:28.432Z,96767.28
2022-10-09T18:01:56.519Z,96768.22
2022-10-09T18:04:25.884Z,96765.16
2022-10-09T18:06:53.941Z,96769.41
2022-10-09T18:09:22.663Z,96757.56
2022-10-09T18:11:51.042Z,96756.22
2022-10-09T18:14:19.132Z,96757.25
2022-10-09T18:16:47.605Z,96759.09
2022-10-09T18:19:18.502Z,96758.47
2022-10-09T18:21:50.585Z,96765.72
2022-10-09T18:24:19.236Z,96755.94
2022-10-09T18:26:47.631Z,96756.13
2022-10-09T18:29:18.304Z,96745.94
2022-10-09T18:31:46.410Z,96744.66
2022-10-09T18:34:14.512Z,96749.28
2022-10-09T18:36:42.838Z,96749.03
2022-10-09T18:39:15.712Z,96743.97
2022-10-09T18:41:44.526Z,96747.66
2022-10-09T18:44:18.546Z,96749.38
2022-10-09T18:46:51.658Z,96742.47
2022-10-09T18:49:23.564Z,96743.75
2022-10-09T18:51:52.599Z,96742.38
2022-10-09T18:54:24.519Z,96737.44
2022-10-09T18:56:52.768Z,96738.34
2022-10-09T18:59:23.150Z,96740.63
2022-10-09T19:01:51.237Z,96738.56
2022-10-09T19:04:19.617Z,96733.38
2022-10-09T19:06:47.973Z,96732.78
2022-10-09T19:09:17.350Z,96738.44
2022-10-09T19:11:47.038Z,96737.28
2022-10-09T19:14:16.152Z,96731.84
2022-10-09T19:16:45.802Z,96737.38
2022-10-09T19:19:14.165Z,96732.00
2022-10-09T19:21:43.912Z,96738.91
2022-10-09T19:24:12.856Z,96734.53
2022-10-09T19:26:41.806Z,96730.84
2022-10-09T19:29:11.406Z,96738.91
2022-10-09T19:31:39.661Z,96740.28
2022-10-09T19:34:08.531Z,96732.59
2022-10-09T19:36:36.868Z,96741.69
2022-10-09T19:39:05.915Z,96731.31
2022-10-09T19:41:34.282Z,96722.44
2022-10-09T19:44:02.663Z,96718.88
2022-10-09T19:46:32.463Z,96721.38
2022-10-09T19:49:00.591Z,96728.53
2022-10-09T19:51:29.049Z,96718.88
2022-10-09T19:53:59.107Z,96718.97
2022-10-09T19:56:30.317Z,96719.41
2022-10-09T19:59:02.421Z,96718.00
2022-10-09T20:01:35.210Z,96723.31
2022-10-09T20:04:07.769Z,96724.44
2022-10-09T20:06:38.973Z,96722.97
2022-10-09T20:09:07.598Z,96717.91
2022-10-09T20:11:35.890Z,96720.06
2022-10-09T20:14:05.848Z,96717.75
2022-10-09T20:16:36.689Z,96723.06
2022-10-09T20:19:05.936Z,96716.69
2022-10-09T20:21:35.299Z,96720.63
2022-10-09T20:24:03.721Z,96716.94
2022-10-09T20:26:33.166Z,96708.75
2022-10-09T20:29:01.237Z,96707.94
2022-10-09T20:31:30.226Z,96708.75
2022-10-09T20:34:00.023Z,96709.06
2022-10-09T20:36:31.923Z,96712.78
2022-10-09T20:39:02.009Z,96710.34
2022-10-09T20:41:31.869Z,96707.81
2022-10-09T20:44:03.296Z,96702.00
2022-10-09T20:46:34.591Z,96704.91
2022-10-09T20:49:06.588Z,96708.38
2022-10-09T20:51:36.354Z,96708.84
2022-10-09T20:54:30.677Z,96706.69
2022-10-09T20:56:58.741Z,96702.16
2022-10-09T20:59:27.260Z,96694.78
2022-10-09T21:01:55.270Z,96695.34
2022-10-09T21:04:24.783Z,96699.13
2022-10-09T21:06:52.891Z,96694.28
2022-10-09T21:09:21.042Z,96695.81
2022-10-09T21:11:50.521Z,96695.34
2022-10-09T21:14:18.551Z,96704.91
2022-10-09T21:16:46.662Z,96695.34
2022-10-09T21:19:14.782Z,96704.34
2022-10-09T21:21:50.063Z,96699.75
2022-10-09T21:24:19.081Z,96699.41
2022-10-09T21:26:47.689Z,96708.44
2022-10-09T21:29:15.887Z,96704.41
2022-10-09T21:31:43.962Z,96706.25
2022-10-09T21:34:12.032Z,96700.47
2022-10-09T21:37:19.931Z,96699.41
2022-10-09T21:39:33.305Z,96701.41
2022-10-09T21:42:01.371Z,96706.38
2022-10-09T21:44:30.045Z,96703.59
2022-10-09T21:46:58.118Z,96705.25
2022-10-09T21:49:28.575Z,96705.47
2022-10-09T21:51:58.257Z,96698.56
2022-10-09T21:54:26.511Z,96705.59
2022-10-09T21:56:54.513Z,96699.03
2022-10-09T21:59:22.585Z,96703.41
2022-10-09T22:01:50.625Z,96696.75
2022-10-09T22:04:18.732Z,96704.94
2022-10-09T22:06:46.818Z,96704.94
2022-10-09T22:09:16.438Z,96701.91
2022-10-09T22:11:45.115Z,96698.13
2022-10-09T22:14:13.738Z,96699.97
2022-10-09T22:16:41.842Z,96699.97
2022-10-09T22:19:09.911Z,96697.81
2022-10-09T22:21:38.027Z,96699.31
2022-10-09T22:24:06.415Z,96696.88
2022-10-09T22:26:36.440Z,96698.84
2022-10-09T22:29:04.489Z,96693.91
2022-10-09T22:31:32.608Z,96694.81
2022-10-09T22:34:02.730Z,96682.16
2022-10-09T22:36:33.831Z,96687.59
2022-10-09T22:39:05.533Z,96691.97
2022-10-09T22:41:36.080Z,96680.44
2022-10-09T22:44:06.473Z,96690.69
2022-10-09T22:46:37.094Z,96690.34
2022-10-09T22:49:05.794Z,96681.69
2022-10-09T22:51:33.909Z,96680.91
2022-10-09T22:54:02.686Z,96678.84
2022-10-09T22:56:33.878Z,96679.63
2022-10-09T22:59:03.443Z,96673.06
2022-10-09T23:01:35.873Z,96677.56
2022-10-09T23:04:07.110Z,96672.38
2022-10-09T23:06:35.292Z,96674.44
2022-10-09T23:09:06.992Z,96677.56
2022-10-09T23:11:36.467Z,96668.81
2022-10-09T23:14:06.989Z,96668.00
2022-10-09T23:16:35.850Z,96662.94
2022-10-09T23:19:07.164Z,96666.16
2022-10-09T23:21:36.362Z,96667.78
2022-10-09T23:24:10.978Z,96669.94
2022-10-09T23:26:39.559Z,96668.94
2022-10-09T23:29:14.434Z,96667.56
2022-10-09T23:31:42.650Z,96670.28
2022-10-09T23:34:11.339Z,96669.50
2022-10-09T23:36:39.509Z,96670.06
2022-10-09T23:39:08.173Z,96670.22
2022-10-09T23:41:36.496Z,96674.34
2022-10-09T23:44:05.238Z,96668.56
2022-10-09T23:46:35.480Z,96666.16
2022-10-09T23:49:04.897Z,96667.78
2022-10-09T23:51:34.855Z,96666.16
2022-10-09T23:54:02.933Z,96671.94
2022-10-09T23:56:33.965Z,96660.84
2022-10-09T23:59:06.197Z,96661.69
